Main page
METAR-TAF:

METAR-TAF

Airports :

Vitoria Airport

Vitoria, Spain

latitude: 42-53N, longitude: 002-43W, elevation: 513 m

Current weather observation

The report was made 35 minutes ago, at 03:30 UTC
Wind 3 kt from the East, varying between North and South/Southeast
Temperature 3°C
Humidity 93%
Pressure 1030 hPa
Visibility 10 km or more
Few clouds at a height of 1800 ft

METAR: LEVT 200330Z 10003KT 360V150 9999 FEW018 03/02 Q1030

Time: 05:05 (04:05 UTC)

Forecast

The report was made 5 hours and 5 minutes ago, at 23:00 UTC
Forecast valid from 20 at 00 UTC to 20 at 24 UTC
Wind 5 kt from the North/Northeast
Visibility 10 km or more
Scattered clouds at a height of 2000 ft
Broken clouds at a height of 4000 ft
Temporary
from 20 at 13 UTC to 20 at 20 UTC
Wind 15 kt from the North/Northeast

TAF: LEVT 192300Z 2000/2024 02005KT 9999 SCT020 BKN040 TX10/2014Z TN01/2006Z TEMPO 2013/2020 03015KT

Weather observations and forecasts of more than 4000 airports (METAR and TAF reports).

The available stations are represented by yellow and red dots on the map.

Hover mouse over dot to see the name of the station.

Then click to see weather observations and forecasts.

To change the map : click on the green buttons with a black cross to zoom in, on the green button with a dash to zoom out, or on the green arrows for adjacent maps.


METAR-TAF: